Предлагаем Вашему вниманию английскую версию страницы: AUTOTAF.ME UNWW - aviation weather forecast Novokuznetsk (Spichenkovo)

AUTOTAF UNWW - авиапрогноз Новокузнецк (Спиченково)

Сегодня рассвет 01:36 UTC, восход солнца 02:17 UTC,
местный полдень 06:23 UTC, заход солнца 10:28 UTC,
наступление темноты 11:09 UTC.

Краткий прогноз UNWW на 9 часов

AUTOTAF.ME UNWW 190800Z 1909/1918 21003MPS 9999 BKN007    
  FM191200 21004MPS 1000 BR BKN003  
  BECMG 1916/1918 VRB02MPS

Детальный прогноз UNWW на 24 часа

AUTOTAF.ME UNWW 190800Z 1909/2009 21003MPS 9999 BKN007 TXM14/1909Z TNM25/2003Z  
  FM191200 21004MPS 1000 BR BKN003  
  BECMG 1916/1918 VRB02MPS  
  FM192100 VRB02MPS 0200 FG IC BKN001 
  BECMG 1922/2000 BKN009   
  FM200600 VRB02MPS 9999 BKN009 
  FM200900 VRB02MPS 0500 FG IC VV002

Подробный табличный прогноз

Время (UTC) miniAUTOTAF на 3 ч WX FZLVL
M AGL
ICE TURB Т
(°С)
Тd
(°С)
f(%) QNH
(гПа)
WIND/T
06 23004MPS 9999 BKN007 SFC MOD FL20/FL110 -14 -17 77 1021 ...
09 21003MPS 9999 BKN007 SFC MOD FL20/FL110 MOD SFC/FL30 -14 -17 75 1020 ...
12 21004MPS 1000 BR BKN003 BR SFC MOD FL20/FL30 -17 -20 78 1022 ...
15 23003MPS 1000 BR BKN003 BR SFC MOD FL20/FL30 -19 -21 79 1023 ...
18 VRB02MPS 1000 BR BKN003 BR SFC MOD FL20/FL30 -20 -23 78 1025 ...
21 VRB02MPS 0200 FG IC BKN001 FG IC SFC MOD FL20/FL30 -21 -23 80 1027 ...
20.01.2021
00 VRB02MPS 0200 FG IC BKN009 FG IC SFC -24 -27 79 1030 ...
03 VRB02MPS 0200 FG IC BKN009 FG IC SFC -25 -28 76 1031 ...
06 VRB02MPS 9999 BKN009 SFC -21 -24 77 1030 ...
09 VRB02MPS 0500 FG IC VV002 FG IC SFC -20 -23 78 1028 ...
12 VRB02MPS 0200 FG IC VV146 FG IC SFC -23 -25 80 1029 ...
15 VRB02MPS 0500 FG IC VV125 FG IC SFC MOD FL170/FL180 -24 -26 78 1027 ...
18 VRB02MPS 1000 VCSH BR BKN003 OVC010CB VCSH BR SFC MOD FL110/FL170 -22 -25 79 1025 ...
21 VRB02MPS 8000 BR OVC036 BR SFC FBL FL50/FL170 -21 -24 79 1021 ...
21.01.2021
00 VRB02MPS 1000 SN BR OVC003 SN BR SFC FBL FL20/FL170 -16 -18 82 1019 ...
03 17003MPS 1000 SN BR OVC003 SN BR SFC MOD FL70/FL80 MOD SFC/FL30 -10 -12 83 1018 ...


Широта 53.81194°, долгота 86.87839°, высота 312 м абс.
Средняя высота рельефа местности 278 м абс.
Прогнозы обновляются четыре раза в сутки: в 02, 08, 14, 20 ч всемирного времени.


Выбрать прогноз по другой модели Новокузнецк (Спиченково)
Онлайн-сводка гроз по Новокузнецк (Спиченково) (для РФ и ближнего зарубежья)
Карта фактических гроз в окрестностях Новокузнецк (Спиченково)
Динамические прогностические карты (ventusky.com)
Прогностическая карта высоты нижней границы облаков по Новокузнецк (Спиченково) (windy.com)
Выбрать другой город

Прогноз предназначен для личного научно-познавательного использования частными лицами
и не предназначен для принятия важных решений и выполнения реальных полётов воздушных судов

При копировании или ином использовании любых материалов данного сайта ссылка на © meteocenter.asia обязательна.

0.56/1